createdAt,value
2019-04-27T00:02:26.573Z,11.10
2019-04-27T00:05:05.539Z,11.00
2019-04-27T00:07:35.609Z,11.00
2019-04-27T00:10:16.072Z,11.00
2019-04-27T00:12:44.527Z,11.10
2019-04-27T00:15:14.782Z,11.00
2019-04-27T00:17:50.837Z,10.90
2019-04-27T00:20:23.978Z,11.00
2019-04-27T00:22:54.177Z,11.00
2019-04-27T00:25:22.971Z,11.00
2019-04-27T00:27:51.558Z,11.10
2019-04-27T00:30:20.283Z,11.10
2019-04-27T00:32:48.717Z,11.10
2019-04-27T00:35:18.898Z,11.10
2019-04-27T00:37:48.968Z,11.00
2019-04-27T00:40:23.462Z,11.00
2019-04-27T00:42:54.026Z,11.10
2019-04-27T00:45:23.423Z,11.10
2019-04-27T00:47:57.406Z,11.00
2019-04-27T00:50:23.503Z,11.10
2019-04-27T00:52:53.169Z,11.10
2019-04-27T00:55:23.332Z,11.10
2019-04-27T00:58:04.062Z,11.10
2019-04-27T01:00:49.084Z,11.10
2019-04-27T01:03:25.229Z,11.00
2019-04-27T01:05:53.671Z,11.10
2019-04-27T01:08:22.947Z,11.10
2019-04-27T01:10:51.471Z,11.10
2019-04-27T01:13:19.952Z,11.10
2019-04-27T01:15:48.393Z,11.10
2019-04-27T01:18:16.854Z,11.00
2019-04-27T01:20:45.304Z,11.00
2019-04-27T01:23:13.762Z,11.00
2019-04-27T01:25:43.873Z,11.00
2019-04-27T01:28:13.962Z,10.90
2019-04-27T01:30:46.771Z,10.90
2019-04-27T01:33:15.224Z,10.90
2019-04-27T01:35:43.668Z,10.80
2019-04-27T01:38:12.134Z,10.80
2019-04-27T01:40:40.651Z,10.90
2019-04-27T01:43:09.221Z,10.90
2019-04-27T01:45:39.117Z,10.90
2019-04-27T01:48:20.833Z,10.80
2019-04-27T01:50:39.200Z,10.80
2019-04-27T01:53:09.061Z,10.80
2019-04-27T01:55:40.442Z,10.80
2019-04-27T01:58:10.724Z,10.80
2019-04-27T02:00:42.910Z,10.80
2019-04-27T02:03:13.086Z,10.80
2019-04-27T02:05:43.178Z,10.80
2019-04-27T02:08:11.697Z,10.80
2019-04-27T02:10:40.147Z,10.90
2019-04-27T02:13:09.057Z,10.80
2019-04-27T02:15:39.364Z,10.90
2019-04-27T02:18:09.360Z,10.90
2019-04-27T02:20:38.794Z,10.80
2019-04-27T02:23:08.986Z,10.80
2019-04-27T02:25:39.429Z,10.80
2019-04-27T02:28:25.732Z,10.80
2019-04-27T02:31:02.144Z,10.80
2019-04-27T02:33:32.323Z,10.80
2019-04-27T02:36:00.857Z,10.80
2019-04-27T02:38:30.496Z,10.70
2019-04-27T02:41:01.519Z,10.80
2019-04-27T02:43:49.932Z,10.80
2019-04-27T02:46:20.060Z,10.80
2019-04-27T02:48:56.626Z,10.80
2019-04-27T02:51:20.428Z,10.90
2019-04-27T02:53:56.249Z,10.80
2019-04-27T02:56:24.926Z,10.80
2019-04-27T02:58:53.476Z,10.70
2019-04-27T03:01:23.836Z,10.70
2019-04-27T03:03:52.283Z,10.70
2019-04-27T03:06:20.927Z,10.80
2019-04-27T03:08:53.583Z,10.80
2019-04-27T03:11:20.512Z,10.70
2019-04-27T03:14:15.113Z,10.70
2019-04-27T03:16:51.516Z,10.70
2019-04-27T03:19:22.049Z,10.60
2019-04-27T03:21:55.101Z,10.60
2019-04-27T03:24:25.232Z,10.60
2019-04-27T03:27:00.461Z,10.60
2019-04-27T03:29:30.485Z,10.70
2019-04-27T03:32:02.022Z,10.70
2019-04-27T03:34:32.009Z,10.60
2019-04-27T03:36:59.782Z,10.60
2019-04-27T03:39:30.363Z,10.60
2019-04-27T03:42:00.215Z,10.60
2019-04-27T03:44:31.795Z,10.50
2019-04-27T03:46:59.620Z,10.50
2019-04-27T03:49:37.500Z,10.40
2019-04-27T03:52:03.078Z,10.40
2019-04-27T03:54:42.228Z,10.40
2019-04-27T03:57:12.333Z,10.50
2019-04-27T03:59:59.674Z,10.60
2019-04-27T04:02:30.245Z,10.50
2019-04-27T04:04:59.848Z,10.40
2019-04-27T04:07:29.994Z,10.40
2019-04-27T04:10:00.225Z,10.30
2019-04-27T04:12:40.132Z,10.40
2019-04-27T04:15:10.511Z,10.40
2019-04-27T04:17:40.261Z,10.40
2019-04-27T04:20:10.224Z,10.40
2019-04-27T04:22:40.309Z,10.40
2019-04-27T04:25:10.783Z,10.40
2019-04-27T04:27:42.352Z,10.40
2019-04-27T04:30:12.202Z,10.40
2019-04-27T04:32:39.986Z,10.40
2019-04-27T04:35:22.096Z,10.40
2019-04-27T04:37:52.914Z,10.50
2019-04-27T04:40:23.254Z,10.60
2019-04-27T04:43:03.426Z,10.60
2019-04-27T04:45:34.377Z,10.60
2019-04-27T04:48:04.471Z,10.50
2019-04-27T04:50:32.994Z,10.50
2019-04-27T04:53:01.520Z,10.60
2019-04-27T04:55:30.708Z,10.60
2019-04-27T04:57:59.327Z,10.70
2019-04-27T05:00:29.652Z,10.70
2019-04-27T05:02:59.492Z,10.70
2019-04-27T05:05:29.330Z,10.80
2019-04-27T05:07:58.744Z,10.90
2019-04-27T05:10:28.808Z,11.00
2019-04-27T05:12:59.010Z,10.90
2019-04-27T05:15:29.186Z,11.00
2019-04-27T05:17:59.112Z,11.00
2019-04-27T05:20:35.022Z,11.00
2019-04-27T05:23:03.500Z,11.00
2019-04-27T05:25:31.942Z,10.90
2019-04-27T05:28:00.404Z,11.00
2019-04-27T05:30:28.858Z,11.10
2019-04-27T05:32:58.548Z,11.20
2019-04-27T05:35:27.157Z,11.20
2019-04-27T05:37:55.594Z,11.20
2019-04-27T05:40:24.065Z,11.20
2019-04-27T05:42:55.149Z,11.10
2019-04-27T05:45:57.720Z,11.20
2019-04-27T05:48:31.976Z,11.30
2019-04-27T05:51:01.904Z,11.30
2019-04-27T05:53:30.655Z,11.30
2019-04-27T05:55:59.521Z,11.40
2019-04-27T05:58:28.892Z,11.40
2019-04-27T06:00:59.261Z,11.50
2019-04-27T06:03:29.661Z,11.70
2019-04-27T06:05:59.360Z,11.90
2019-04-27T06:08:29.464Z,12.10
2019-04-27T06:10:59.206Z,12.10
2019-04-27T06:13:30.680Z,12.00
2019-04-27T06:15:59.266Z,12.10
2019-04-27T06:18:29.424Z,12.20
2019-04-27T06:20:59.682Z,12.20
2019-04-27T06:23:29.004Z,12.00
2019-04-27T06:25:57.783Z,12.20
2019-04-27T06:28:26.428Z,12.30
2019-04-27T06:30:54.897Z,12.50
2019-04-27T06:33:32.147Z,12.60
2019-04-27T06:35:53.529Z,12.50
2019-04-27T06:38:21.987Z,12.50
2019-04-27T06:40:50.452Z,12.70
2019-04-27T06:43:18.989Z,12.70
2019-04-27T06:45:48.774Z,12.60
2019-04-27T06:48:19.290Z,12.70
2019-04-27T06:50:48.982Z,13.00
2019-04-27T06:53:19.133Z,12.90
2019-04-27T06:55:49.661Z,12.90
2019-04-27T06:58:19.983Z,12.80
2019-04-27T07:00:49.661Z,12.80
2019-04-27T07:03:18.881Z,12.70
2019-04-27T07:05:48.674Z,12.60
2019-04-27T07:08:18.598Z,12.70
2019-04-27T07:10:49.016Z,12.70
2019-04-27T07:13:19.403Z,12.80
2019-04-27T07:15:48.564Z,12.90
2019-04-27T07:18:18.632Z,12.90
2019-04-27T07:20:48.524Z,12.90
2019-04-27T07:23:18.709Z,12.80
2019-04-27T07:25:48.789Z,12.80
2019-04-27T07:28:18.962Z,13.00
2019-04-27T07:30:48.772Z,13.10
2019-04-27T07:33:18.624Z,13.40
2019-04-27T07:35:48.962Z,13.40
2019-04-27T07:38:19.092Z,13.40
2019-04-27T07:40:48.858Z,13.40
2019-04-27T07:43:24.903Z,13.50
2019-04-27T07:45:53.362Z,13.60
2019-04-27T07:48:21.803Z,13.70
2019-04-27T07:50:50.497Z,13.70
2019-04-27T07:53:19.317Z,13.80
2019-04-27T07:55:49.412Z,14.00
2019-04-27T07:58:20.522Z,14.20
2019-04-27T08:00:49.183Z,14.40
2019-04-27T08:03:19.532Z,14.30
2019-04-27T08:05:49.086Z,14.40
2019-04-27T08:08:18.978Z,14.30
2019-04-27T08:10:50.128Z,14.10
2019-04-27T08:13:19.464Z,14.40
2019-04-27T08:15:49.584Z,14.30
2019-04-27T08:18:18.991Z,14.20
2019-04-27T08:20:49.112Z,14.40
2019-04-27T08:23:19.423Z,14.50
2019-04-27T08:25:48.934Z,14.70
2019-04-27T08:28:24.911Z,14.80
2019-04-27T08:30:58.561Z,14.70
2019-04-27T08:33:28.996Z,14.60
2019-04-27T08:35:59.080Z,14.50
2019-04-27T08:38:28.937Z,14.40
2019-04-27T08:40:59.170Z,14.40
2019-04-27T08:43:29.002Z,14.60
2019-04-27T08:45:58.770Z,14.50
2019-04-27T08:48:36.055Z,14.90
2019-04-27T08:50:59.363Z,15.20
2019-04-27T08:53:29.725Z,15.50
2019-04-27T08:55:59.167Z,15.90
2019-04-27T08:58:28.669Z,15.80
2019-04-27T09:00:58.914Z,15.60
2019-04-27T09:03:29.287Z,15.90
2019-04-27T09:05:59.033Z,16.00
2019-04-27T09:08:29.284Z,16.00
2019-04-27T09:10:59.384Z,16.00
2019-04-27T09:13:39.420Z,16.20
2019-04-27T09:16:24.947Z,16.20
2019-04-27T09:18:55.049Z,16.30
2019-04-27T09:21:23.487Z,16.20
2019-04-27T09:23:51.952Z,16.00
2019-04-27T09:26:20.393Z,16.10
2019-04-27T09:28:49.311Z,16.10
2019-04-27T09:31:19.506Z,15.90
2019-04-27T09:33:48.110Z,16.10
2019-04-27T09:36:16.628Z,16.30
2019-04-27T09:38:46.497Z,16.10
2019-04-27T09:41:16.842Z,16.20
2019-04-27T09:43:46.623Z,16.30
2019-04-27T09:46:15.742Z,16.40
2019-04-27T09:48:44.304Z,16.50
2019-04-27T09:51:12.777Z,16.60
2019-04-27T09:53:41.217Z,16.80
2019-04-27T09:56:09.674Z,17.10
2019-04-27T09:58:38.117Z,17.10
2019-04-27T10:01:06.760Z,17.30
2019-04-27T10:03:36.077Z,17.40
2019-04-27T10:06:05.923Z,17.30
2019-04-27T10:08:34.497Z,17.40
2019-04-27T10:11:02.964Z,17.60
2019-04-27T10:13:31.417Z,17.20
2019-04-27T10:15:59.879Z,17.10
2019-04-27T10:18:28.326Z,17.10
2019-04-27T10:21:01.703Z,17.20
2019-04-27T10:23:26.959Z,17.40
2019-04-27T10:25:55.794Z,17.80
2019-04-27T10:28:24.353Z,18.00
2019-04-27T10:30:52.946Z,18.30
2019-04-27T10:33:21.956Z,18.50
2019-04-27T10:35:50.439Z,18.20
2019-04-27T10:38:18.980Z,17.80
2019-04-27T10:40:47.484Z,17.70
2019-04-27T10:43:15.921Z,17.70
2019-04-27T10:45:46.141Z,17.80
2019-04-27T10:48:16.320Z,17.80
2019-04-27T10:50:46.598Z,17.60
2019-04-27T10:53:16.896Z,17.50
2019-04-27T10:55:46.386Z,17.80
2019-04-27T10:58:15.058Z,18.30
2019-04-27T11:00:45.605Z,18.40
2019-04-27T11:03:16.650Z,18.70
2019-04-27T11:05:46.858Z,18.40
2019-04-27T11:08:16.725Z,18.50
2019-04-27T11:10:46.158Z,18.60
2019-04-27T11:13:16.445Z,18.90
2019-04-27T11:15:46.104Z,19.10
2019-04-27T11:18:16.559Z,18.80
2019-04-27T11:20:46.286Z,18.60
2019-04-27T11:23:16.431Z,18.60
2019-04-27T11:25:46.662Z,18.80
2019-04-27T11:28:15.730Z,19.00
2019-04-27T11:30:44.214Z,18.90
2019-04-27T11:33:12.693Z,19.00
2019-04-27T11:35:46.926Z,18.80
2019-04-27T11:38:16.751Z,19.00
2019-04-27T11:40:46.957Z,19.30
2019-04-27T11:43:16.108Z,19.30
2019-04-27T11:45:45.715Z,19.20
2019-04-27T11:48:16.039Z,18.80
2019-04-27T11:50:45.854Z,18.40
2019-04-27T11:53:22.740Z,18.30
2019-04-27T11:55:45.101Z,18.40
2019-04-27T11:58:13.561Z,18.50
2019-04-27T12:00:41.997Z,18.70
2019-04-27T12:03:10.487Z,18.60
2019-04-27T12:05:38.938Z,18.80
2019-04-27T12:08:07.369Z,18.90
2019-04-27T12:10:36.343Z,18.90
2019-04-27T12:13:05.460Z,19.10
2019-04-27T12:15:36.219Z,19.30
2019-04-27T12:18:08.959Z,19.20
2019-04-27T12:20:35.912Z,18.80
2019-04-27T12:23:06.339Z,18.60
2019-04-27T12:25:37.027Z,18.80
2019-04-27T12:28:06.542Z,18.90
2019-04-27T12:30:39.661Z,19.10
2019-04-27T12:33:08.101Z,18.80
2019-04-27T12:35:36.920Z,18.80
2019-04-27T12:38:05.842Z,19.10
2019-04-27T12:40:34.430Z,19.10
2019-04-27T12:43:02.953Z,19.00
2019-04-27T12:45:31.561Z,19.00
2019-04-27T12:48:00.077Z,19.10
2019-04-27T12:50:28.597Z,19.10
2019-04-27T12:53:01.401Z,19.10
2019-04-27T12:55:47.521Z,19.20
2019-04-27T12:58:29.614Z,19.20
2019-04-27T13:00:59.709Z,19.30
2019-04-27T13:03:28.169Z,19.40
2019-04-27T13:05:56.643Z,19.20
2019-04-27T13:08:26.049Z,18.90
2019-04-27T13:10:55.383Z,18.80
2019-04-27T13:13:26.545Z,18.80
2019-04-27T13:15:56.338Z,18.90
2019-04-27T13:18:25.808Z,18.80
2019-04-27T13:20:54.431Z,18.70
2019-04-27T13:23:22.870Z,18.60
2019-04-27T13:25:51.323Z,18.50
2019-04-27T13:28:19.765Z,18.50
2019-04-27T13:30:48.283Z,18.50
2019-04-27T13:33:17.504Z,18.40
2019-04-27T13:35:46.110Z,18.30
2019-04-27T13:38:17.845Z,18.30
2019-04-27T13:40:46.375Z,18.30
2019-04-27T13:43:16.759Z,18.10
2019-04-27T13:46:01.942Z,18.20
2019-04-27T13:48:36.436Z,18.20
2019-04-27T13:51:06.708Z,18.30
2019-04-27T13:53:36.811Z,18.20
2019-04-27T13:56:17.663Z,18.30
2019-04-27T13:58:46.113Z,18.40
2019-04-27T14:01:14.565Z,18.40
2019-04-27T14:03:45.011Z,18.40
2019-04-27T14:06:13.180Z,18.30
2019-04-27T14:08:41.609Z,18.30
2019-04-27T14:11:10.088Z,18.40
2019-04-27T14:13:39.154Z,18.50
2019-04-27T14:16:08.737Z,18.50
2019-04-27T14:18:38.536Z,18.50
2019-04-27T14:21:07.097Z,18.60
2019-04-27T14:23:35.556Z,18.60
2019-04-27T14:26:04.120Z,18.60
2019-04-27T14:28:32.613Z,18.50
2019-04-27T14:31:01.108Z,18.40
2019-04-27T14:33:29.626Z,18.50
2019-04-27T14:35:59.421Z,18.60
2019-04-27T14:38:28.086Z,18.50
2019-04-27T14:40:56.534Z,18.40
2019-04-27T14:43:24.992Z,18.50
2019-04-27T14:45:53.430Z,18.60
2019-04-27T14:48:21.955Z,18.50
2019-04-27T14:50:50.394Z,18.30
2019-04-27T14:53:18.872Z,18.50
2019-04-27T14:55:48.937Z,18.70
2019-04-27T14:58:19.158Z,18.70
2019-04-27T15:00:49.690Z,18.60
2019-04-27T15:03:17.882Z,18.70
2019-04-27T15:05:49.653Z,18.80
2019-04-27T15:08:16.520Z,18.70
2019-04-27T15:10:46.425Z,18.80
2019-04-27T15:13:14.990Z,18.80
2019-04-27T15:15:43.435Z,18.90
2019-04-27T15:18:12.029Z,19.00
2019-04-27T15:20:43.935Z,19.00
2019-04-27T15:23:12.494Z,19.10
2019-04-27T15:25:45.617Z,19.10
2019-04-27T15:28:18.589Z,19.10
2019-04-27T15:30:48.662Z,19.20
2019-04-27T15:33:35.031Z,19.20
2019-04-27T15:36:09.811Z,19.10
2019-04-27T15:38:43.013Z,19.00
2019-04-27T15:41:14.095Z,18.80
2019-04-27T15:43:44.202Z,18.80
2019-04-27T15:46:12.652Z,18.80
2019-04-27T15:48:41.165Z,18.70
2019-04-27T15:51:17.426Z,18.70
2019-04-27T15:53:41.571Z,18.60
2019-04-27T15:56:09.976Z,18.60
2019-04-27T15:58:38.471Z,18.50
2019-04-27T16:01:09.871Z,18.50
2019-04-27T16:03:38.971Z,18.30
2019-04-27T16:06:11.720Z,18.30
2019-04-27T16:08:44.781Z,18.20
2019-04-27T16:11:09.942Z,18.10
2019-04-27T16:13:38.347Z,18.20
2019-04-27T16:16:08.442Z,18.20
2019-04-27T16:18:38.685Z,18.20
2019-04-27T16:21:10.625Z,18.20
2019-04-27T16:23:42.688Z,18.20
2019-04-27T16:26:10.951Z,18.10
2019-04-27T16:28:38.051Z,18.10
2019-04-27T16:31:06.526Z,18.10
2019-04-27T16:33:34.975Z,17.90
2019-04-27T16:36:06.811Z,17.90
2019-04-27T16:38:50.114Z,17.90
2019-04-27T16:41:18.654Z,18.00
2019-04-27T16:43:48.853Z,18.00
2019-04-27T16:46:21.071Z,17.90
2019-04-27T16:48:47.733Z,17.70
2019-04-27T16:51:18.175Z,17.60
2019-04-27T16:53:46.330Z,17.50
2019-04-27T16:56:18.347Z,17.50
2019-04-27T16:58:49.101Z,17.30
2019-04-27T17:01:18.404Z,17.40
2019-04-27T17:03:48.545Z,17.30
2019-04-27T17:06:21.028Z,17.20
2019-04-27T17:08:49.170Z,17.30
2019-04-27T17:11:19.580Z,17.30
2019-04-27T17:13:58.959Z,17.30
2019-04-27T17:16:40.774Z,17.20
2019-04-27T17:19:19.834Z,17.20
2019-04-27T17:21:48.554Z,17.20
2019-04-27T17:24:18.764Z,17.20
2019-04-27T17:26:47.905Z,17.20
2019-04-27T17:29:20.370Z,17.10
2019-04-27T17:31:50.447Z,17.10
2019-04-27T17:34:25.221Z,17.00
2019-04-27T17:36:54.886Z,17.10
2019-04-27T17:39:23.404Z,17.10
2019-04-27T17:41:52.805Z,17.10
2019-04-27T17:44:23.191Z,17.00
2019-04-27T17:46:51.331Z,16.80
2019-04-27T17:49:19.802Z,16.80
2019-04-27T17:51:48.495Z,16.60
2019-04-27T17:54:18.206Z,16.60
2019-04-27T17:56:49.406Z,16.60
2019-04-27T17:59:20.602Z,16.70
2019-04-27T18:01:47.172Z,16.60
2019-04-27T18:04:16.294Z,16.50
2019-04-27T18:06:44.833Z,16.50
2019-04-27T18:09:15.669Z,16.50
2019-04-27T18:11:44.117Z,16.40
2019-04-27T18:14:14.709Z,16.40
2019-04-27T18:16:42.745Z,16.30
2019-04-27T18:19:12.855Z,16.30
2019-04-27T18:21:43.020Z,16.20
2019-04-27T18:24:13.132Z,16.20
2019-04-27T18:26:49.565Z,16.20
2019-04-27T18:29:13.437Z,16.10
2019-04-27T18:31:41.862Z,16.00
2019-04-27T18:34:15.010Z,15.90
2019-04-27T18:36:43.945Z,15.90
2019-04-27T18:39:13.749Z,15.90
2019-04-27T18:41:49.282Z,15.90
2019-04-27T18:44:11.297Z,15.90
2019-04-27T18:46:39.768Z,15.70
2019-04-27T18:49:18.453Z,15.70
2019-04-27T18:52:08.797Z,15.70
2019-04-27T18:54:38.160Z,15.60
2019-04-27T18:57:10.779Z,15.60
2019-04-27T18:59:38.038Z,15.50
2019-04-27T19:02:08.302Z,15.50
2019-04-27T19:04:37.020Z,15.50
2019-04-27T19:07:05.464Z,15.40
2019-04-27T19:09:33.913Z,15.40
2019-04-27T19:12:02.383Z,15.40
2019-04-27T19:14:30.829Z,15.40
2019-04-27T19:16:59.292Z,15.40
2019-04-27T19:19:28.126Z,15.40
2019-04-27T19:21:58.737Z,15.40
2019-04-27T19:24:28.156Z,15.30
2019-04-27T19:27:15.371Z,15.20
2019-04-27T19:29:41.763Z,15.00
2019-04-27T19:32:10.265Z,14.90
2019-04-27T19:34:38.897Z,14.80
2019-04-27T19:37:08.129Z,14.70
2019-04-27T19:39:36.948Z,14.60
2019-04-27T19:42:05.403Z,14.50
2019-04-27T19:44:33.852Z,14.40
2019-04-27T19:47:02.289Z,14.40
2019-04-27T19:49:31.823Z,14.30
2019-04-27T19:52:00.421Z,14.20
2019-04-27T19:54:30.321Z,14.20
2019-04-27T19:56:59.523Z,14.10
2019-04-27T19:59:29.934Z,14.10
2019-04-27T20:02:00.004Z,14.10
2019-04-27T20:04:36.107Z,14.00
2019-04-27T20:07:04.635Z,14.00
2019-04-27T20:09:34.747Z,13.90
2019-04-27T20:12:05.082Z,13.90
2019-04-27T20:14:35.000Z,13.80
2019-04-27T20:17:03.698Z,13.70
2019-04-27T20:19:32.138Z,13.70
2019-04-27T20:22:00.858Z,13.70
2019-04-27T20:24:31.393Z,13.70
2019-04-27T20:27:00.672Z,13.70
2019-04-27T20:29:29.655Z,13.60
2019-04-27T20:31:58.119Z,13.60
2019-04-27T20:34:26.556Z,13.60
2019-04-27T20:36:55.021Z,13.50
2019-04-27T20:39:23.457Z,13.50
2019-04-27T20:41:51.922Z,13.40
2019-04-27T20:44:21.025Z,13.40
2019-04-27T20:46:51.232Z,13.30
2019-04-27T20:49:20.841Z,13.30
2019-04-27T20:52:08.750Z,13.30
2019-04-27T20:54:37.193Z,13.20
2019-04-27T20:57:06.076Z,13.20
2019-04-27T20:59:34.518Z,13.20
2019-04-27T21:02:23.822Z,13.10
2019-04-27T21:04:52.646Z,13.10
2019-04-27T21:07:22.758Z,13.20
2019-04-27T21:09:51.210Z,13.20
2019-04-27T21:12:21.000Z,13.30
2019-04-27T21:14:49.819Z,13.20
2019-04-27T21:17:18.277Z,13.10
2019-04-27T21:19:46.729Z,13.10
2019-04-27T21:22:15.178Z,13.10
2019-04-27T21:24:43.619Z,13.00
2019-04-27T21:27:13.024Z,13.00
2019-04-27T21:29:42.066Z,12.90
2019-04-27T21:32:11.145Z,12.90
2019-04-27T21:34:41.316Z,12.80
2019-04-27T21:37:11.068Z,12.80
2019-04-27T21:39:39.530Z,12.70
2019-04-27T21:42:08.028Z,12.70
2019-04-27T21:44:36.461Z,12.70
2019-04-27T21:47:04.933Z,12.70
2019-04-27T21:49:33.373Z,12.60
2019-04-27T21:52:03.462Z,12.60
2019-04-27T21:54:33.526Z,12.60
2019-04-27T21:57:02.348Z,12.60
2019-04-27T21:59:30.778Z,12.60
2019-04-27T22:02:02.262Z,12.60
2019-04-27T22:04:31.485Z,12.50
2019-04-27T22:07:01.402Z,12.50
2019-04-27T22:09:30.018Z,12.50
2019-04-27T22:11:58.454Z,12.40
2019-04-27T22:14:26.990Z,12.40
2019-04-27T22:16:55.520Z,12.30
2019-04-27T22:19:24.492Z,12.40
2019-04-27T22:21:52.925Z,12.50
2019-04-27T22:24:38.138Z,12.50
2019-04-27T22:27:06.588Z,12.40
2019-04-27T22:29:35.058Z,12.40
2019-04-27T22:32:03.517Z,12.30
2019-04-27T22:34:32.034Z,12.30
2019-04-27T22:37:00.967Z,12.30
2019-04-27T22:39:32.358Z,12.30
2019-04-27T22:42:02.434Z,12.20
2019-04-27T22:44:32.522Z,12.20
2019-04-27T22:47:00.974Z,12.20
2019-04-27T22:49:31.188Z,12.20
2019-04-27T22:52:01.419Z,12.10
2019-04-27T22:54:31.811Z,12.10
2019-04-27T22:57:01.800Z,12.10
2019-04-27T22:59:31.956Z,12.10
2019-04-27T23:02:11.484Z,12.10
2019-04-27T23:05:01.759Z,12.00
2019-04-27T23:07:31.450Z,12.00
2019-04-27T23:10:01.616Z,12.00
2019-04-27T23:12:31.706Z,12.10
2019-04-27T23:15:00.338Z,12.30
2019-04-27T23:17:31.700Z,12.40
2019-04-27T23:20:01.401Z,12.50
2019-04-27T23:22:31.527Z,12.40
2019-04-27T23:25:01.089Z,12.30
2019-04-27T23:27:29.636Z,12.30
2019-04-27T23:29:58.093Z,12.30
2019-04-27T23:32:28.181Z,12.30
2019-04-27T23:34:56.638Z,12.30
2019-04-27T23:37:25.064Z,12.30
2019-04-27T23:39:53.533Z,12.30
2019-04-27T23:42:21.966Z,12.30
2019-04-27T23:44:50.422Z,12.30
2019-04-27T23:47:18.869Z,12.30
2019-04-27T23:49:47.342Z,12.30
2019-04-27T23:52:17.501Z,12.20
2019-04-27T23:54:45.962Z,12.10
2019-04-27T23:57:14.390Z,12.10
2019-04-27T23:59:42.846Z,12.00
